createdAt,value
2022-10-10T04:00:28.182Z,10.81
2022-10-10T04:01:28.153Z,10.76
2022-10-10T04:02:28.108Z,10.74
2022-10-10T04:03:28.117Z,10.74
2022-10-10T04:04:28.092Z,10.68
2022-10-10T04:05:28.086Z,10.71
2022-10-10T04:06:28.080Z,10.71
2022-10-10T04:07:28.052Z,10.79
2022-10-10T04:08:28.049Z,10.70
2022-10-10T04:09:28.040Z,10.76
2022-10-10T04:10:28.017Z,10.67
2022-10-10T04:11:33.048Z,10.74
2022-10-10T04:12:27.995Z,10.74
2022-10-10T04:13:27.987Z,10.68
2022-10-10T04:14:27.981Z,10.73
2022-10-10T04:15:27.975Z,10.74
2022-10-10T04:16:28.005Z,10.74
2022-10-10T04:17:27.938Z,10.82
2022-10-10T04:18:27.926Z,10.73
2022-10-10T04:19:27.929Z,10.85
2022-10-10T04:20:27.902Z,10.71
2022-10-10T04:21:27.898Z,10.76
2022-10-10T04:22:32.916Z,10.68
2022-10-10T04:23:27.888Z,10.74
2022-10-10T04:24:27.865Z,10.78
2022-10-10T04:25:27.848Z,10.71
2022-10-10T04:26:27.838Z,10.74
2022-10-10T04:27:27.823Z,10.78
2022-10-10T04:28:27.869Z,10.79
2022-10-10T04:29:27.827Z,10.76
2022-10-10T04:30:27.791Z,10.76
2022-10-10T04:31:27.782Z,10.76
2022-10-10T04:32:27.793Z,10.76
2022-10-10T04:33:32.874Z,10.84
2022-10-10T04:34:27.745Z,10.84
2022-10-10T04:35:27.746Z,10.86
2022-10-10T04:36:27.730Z,10.85
2022-10-10T04:37:27.751Z,10.88
2022-10-10T04:38:27.748Z,10.79
2022-10-10T04:39:28.320Z,10.84
2022-10-10T04:40:27.718Z,10.86
2022-10-10T04:41:27.706Z,10.84
2022-10-10T04:42:27.661Z,10.86
2022-10-10T04:43:27.645Z,10.82
2022-10-10T04:44:32.662Z,10.82
2022-10-10T04:45:27.637Z,10.86
2022-10-10T04:46:27.614Z,10.84
2022-10-10T04:47:27.594Z,10.85
2022-10-10T04:48:27.617Z,10.86
2022-10-10T04:49:27.597Z,10.78
2022-10-10T04:50:27.565Z,10.84
2022-10-10T04:51:27.551Z,10.84
2022-10-10T04:52:27.536Z,10.88
2022-10-10T04:53:27.542Z,10.86
2022-10-10T04:54:27.514Z,10.84
2022-10-10T04:55:32.533Z,10.84
2022-10-10T04:56:27.500Z,10.86
2022-10-10T04:57:27.480Z,10.79
2022-10-10T04:58:27.485Z,10.79
2022-10-10T04:59:27.460Z,10.86
2022-10-10T05:00:27.449Z,10.82
2022-10-10T05:01:27.693Z,10.84
2022-10-10T05:02:27.425Z,10.82
2022-10-10T05:03:27.419Z,10.76
2022-10-10T05:04:27.442Z,10.68
2022-10-10T05:05:27.395Z,10.79
2022-10-10T05:06:32.399Z,10.76
2022-10-10T05:07:27.367Z,10.74
2022-10-10T05:08:27.351Z,10.70
2022-10-10T05:09:27.354Z,10.61
2022-10-10T05:10:27.362Z,10.70
2022-10-10T05:11:27.341Z,10.68
2022-10-10T05:12:27.310Z,10.66
2022-10-10T05:13:27.353Z,10.67
2022-10-10T05:14:27.306Z,10.67
2022-10-10T05:15:27.274Z,10.70
2022-10-10T05:16:27.267Z,10.71
2022-10-10T05:17:32.273Z,10.70
2022-10-10T05:18:27.237Z,10.71
2022-10-10T05:19:27.238Z,10.68
2022-10-10T05:20:27.252Z,10.59
2022-10-10T05:21:27.208Z,10.60
2022-10-10T05:22:27.204Z,10.53
2022-10-10T05:23:27.194Z,10.61
2022-10-10T05:24:27.189Z,10.48
2022-10-10T05:25:27.159Z,10.56
2022-10-10T05:26:27.153Z,10.53
2022-10-10T05:27:27.166Z,10.52
2022-10-10T05:28:32.200Z,10.48
2022-10-10T05:29:27.138Z,10.56
2022-10-10T05:30:27.102Z,10.59
2022-10-10T05:31:27.089Z,10.64
2022-10-10T05:32:27.085Z,10.63
2022-10-10T05:33:27.080Z,10.53
2022-10-10T05:34:27.167Z,10.53
2022-10-10T05:35:27.063Z,10.52
2022-10-10T05:36:27.107Z,10.52
2022-10-10T05:37:27.023Z,10.47
2022-10-10T05:38:27.008Z,10.55
2022-10-10T05:39:32.037Z,10.52
2022-10-10T05:40:26.998Z,10.55
2022-10-10T05:41:26.986Z,10.55
2022-10-10T05:42:26.977Z,10.53
2022-10-10T05:43:26.956Z,10.59
2022-10-10T05:44:26.963Z,10.56
2022-10-10T05:45:26.953Z,10.60
2022-10-10T05:46:26.919Z,10.56
2022-10-10T05:47:28.154Z,10.51
2022-10-10T05:48:26.896Z,10.52
2022-10-10T05:49:26.907Z,10.59
2022-10-10T05:50:31.898Z,10.55
2022-10-10T05:51:26.867Z,10.52
2022-10-10T05:52:26.875Z,10.44
2022-10-10T05:53:26.854Z,10.48
2022-10-10T05:54:26.857Z,10.47
2022-10-10T05:55:26.827Z,10.41
2022-10-10T05:56:26.806Z,10.41
2022-10-10T05:57:26.795Z,10.38
2022-10-10T05:58:26.791Z,10.45
2022-10-10T05:59:26.834Z,10.59
2022-10-10T06:00:26.771Z,10.52
2022-10-10T06:01:31.781Z,10.53
2022-10-10T06:02:26.803Z,10.52
2022-10-10T06:03:26.725Z,10.53
2022-10-10T06:04:26.744Z,10.51
2022-10-10T06:05:26.824Z,10.59
2022-10-10T06:06:26.715Z,10.55
2022-10-10T06:07:36.111Z,10.60
2022-10-10T06:08:27.735Z,10.60
2022-10-10T06:09:26.707Z,10.66
2022-10-10T06:10:26.684Z,10.61
2022-10-10T06:11:26.637Z,10.60
2022-10-10T06:12:31.659Z,10.71
2022-10-10T06:13:26.619Z,10.76
2022-10-10T06:14:26.618Z,10.70
2022-10-10T06:15:26.599Z,10.74
2022-10-10T06:16:26.586Z,10.82
2022-10-10T06:17:26.565Z,10.86
2022-10-10T06:18:26.561Z,10.82
2022-10-10T06:19:26.579Z,10.88
2022-10-10T06:20:26.555Z,10.85
2022-10-10T06:21:26.525Z,10.86
2022-10-10T06:22:26.506Z,10.92
2022-10-10T06:23:31.546Z,10.94
2022-10-10T06:24:26.498Z,11.02
2022-10-10T06:25:40.000Z,10.97
2022-10-10T06:26:27.477Z,10.97
2022-10-10T06:27:26.456Z,10.96
2022-10-10T06:28:26.508Z,10.94
2022-10-10T06:29:26.468Z,10.89
2022-10-10T06:30:26.451Z,10.99
2022-10-10T06:31:26.419Z,10.92
2022-10-10T06:32:26.410Z,10.94
2022-10-10T06:33:26.381Z,10.94
2022-10-10T06:34:31.398Z,11.00
2022-10-10T06:35:26.378Z,11.09
2022-10-10T06:36:26.346Z,11.10
2022-10-10T06:37:26.336Z,11.07
2022-10-10T06:38:26.374Z,11.11
2022-10-10T06:39:26.381Z,11.11
2022-10-10T06:40:26.303Z,11.14
2022-10-10T06:41:26.291Z,11.09
2022-10-10T06:42:26.286Z,11.04
2022-10-10T06:43:26.274Z,11.02
2022-10-10T06:44:26.260Z,11.07
2022-10-10T06:45:31.321Z,11.00
2022-10-10T06:46:26.246Z,11.04
2022-10-10T06:47:26.223Z,11.03
2022-10-10T06:48:26.208Z,11.17
2022-10-10T06:49:26.201Z,11.03
2022-10-10T06:50:26.252Z,11.09
2022-10-10T06:51:26.178Z,11.09
2022-10-10T06:52:26.167Z,11.09
2022-10-10T06:53:26.159Z,11.03
2022-10-10T06:54:26.146Z,11.11
2022-10-10T06:55:26.200Z,11.14
2022-10-10T06:56:31.141Z,11.10
2022-10-10T06:57:26.107Z,11.17
2022-10-10T06:58:26.128Z,11.27
2022-10-10T06:59:26.088Z,11.33
2022-10-10T07:00:26.182Z,11.28
2022-10-10T07:01:26.215Z,11.22
2022-10-10T07:02:26.053Z,11.27
2022-10-10T07:03:26.046Z,11.35
2022-10-10T07:04:26.053Z,11.43
2022-10-10T07:05:26.044Z,11.36
2022-10-10T07:06:26.004Z,11.54
2022-10-10T07:07:31.017Z,11.54
2022-10-10T07:08:26.021Z,11.55
2022-10-10T07:09:26.102Z,11.60
2022-10-10T07:10:26.061Z,11.65
2022-10-10T07:11:25.969Z,11.58
2022-10-10T07:12:29.106Z,11.58
2022-10-10T07:13:25.945Z,11.64
2022-10-10T07:14:25.930Z,11.64
2022-10-10T07:15:25.936Z,11.67
2022-10-10T07:16:25.890Z,11.78
2022-10-10T07:17:25.888Z,11.95
2022-10-10T07:18:30.889Z,12.02
2022-10-10T07:19:25.860Z,12.09
2022-10-10T07:20:25.870Z,12.14
2022-10-10T07:21:25.839Z,12.09
2022-10-10T07:22:25.827Z,12.12
2022-10-10T07:23:25.837Z,11.96
2022-10-10T07:24:25.809Z,12.07
2022-10-10T07:25:25.807Z,12.12
2022-10-10T07:26:25.786Z,11.99
2022-10-10T07:27:25.791Z,12.02
2022-10-10T07:28:25.816Z,11.99
2022-10-10T07:29:30.780Z,12.01
2022-10-10T07:30:25.746Z,12.01
2022-10-10T07:31:25.725Z,12.04
2022-10-10T07:32:25.713Z,12.10
2022-10-10T07:33:25.699Z,11.98
2022-10-10T07:34:25.701Z,12.04
2022-10-10T07:35:25.713Z,11.99
2022-10-10T07:36:25.673Z,12.07
2022-10-10T07:37:25.659Z,12.01
2022-10-10T07:38:25.647Z,12.10
2022-10-10T07:39:25.637Z,11.96
2022-10-10T07:40:30.657Z,11.99
2022-10-10T07:41:25.608Z,11.99
2022-10-10T07:42:25.655Z,12.13
2022-10-10T07:43:25.614Z,12.19
2022-10-10T07:44:25.587Z,12.12
2022-10-10T07:45:25.566Z,12.34
2022-10-10T07:46:25.578Z,12.41
2022-10-10T07:47:25.541Z,12.47
2022-10-10T07:48:25.529Z,12.47
2022-10-10T07:49:25.543Z,12.56
2022-10-10T07:50:25.511Z,12.47
2022-10-10T07:51:30.544Z,12.54
2022-10-10T07:52:25.491Z,12.60
2022-10-10T07:53:25.476Z,12.67
2022-10-10T07:54:25.459Z,12.65
2022-10-10T07:55:25.491Z,12.67
2022-10-10T07:56:25.445Z,12.68
2022-10-10T07:57:25.442Z,12.67
2022-10-10T07:58:25.453Z,12.86
2022-10-10T07:59:25.539Z,12.87
2022-10-10T08:00:25.394Z,12.89
2022-10-10T08:01:25.424Z,12.90
2022-10-10T08:02:30.392Z,13.14
2022-10-10T08:03:25.370Z,13.17
2022-10-10T08:04:25.348Z,13.38
2022-10-10T08:05:25.519Z,13.62
2022-10-10T08:06:25.379Z,13.77
2022-10-10T08:07:25.321Z,13.84
2022-10-10T08:08:25.310Z,13.95
2022-10-10T08:09:25.312Z,14.12
2022-10-10T08:10:25.296Z,14.39
2022-10-10T08:11:25.369Z,14.73
2022-10-10T08:12:25.273Z,15.13
2022-10-10T08:13:30.267Z,15.31
2022-10-10T08:14:25.287Z,15.38
2022-10-10T08:15:26.902Z,15.59
2022-10-10T08:16:25.227Z,15.57
2022-10-10T08:17:25.205Z,15.67
2022-10-10T08:18:25.216Z,15.60
2022-10-10T08:19:25.180Z,15.67
2022-10-10T08:20:25.246Z,15.82
2022-10-10T08:21:25.234Z,15.94
2022-10-10T08:22:25.146Z,15.93
2022-10-10T08:23:25.133Z,15.68
2022-10-10T08:24:30.159Z,15.69
2022-10-10T08:25:25.168Z,15.54
2022-10-10T08:26:25.120Z,15.49
2022-10-10T08:27:25.129Z,15.60
2022-10-10T08:28:25.179Z,15.68
2022-10-10T08:29:25.081Z,15.96
2022-10-10T08:30:25.056Z,16.30
2022-10-10T08:31:25.174Z,16.31
2022-10-10T08:32:25.041Z,16.14
2022-10-10T08:33:25.021Z,16.24
2022-10-10T08:34:25.011Z,16.08
2022-10-10T08:35:30.108Z,15.87
2022-10-10T08:36:24.998Z,15.74
2022-10-10T08:37:29.818Z,15.67
2022-10-10T08:38:25.961Z,15.71
2022-10-10T08:39:24.951Z,15.67
2022-10-10T08:40:24.993Z,15.69
2022-10-10T08:41:24.979Z,15.74
2022-10-10T08:42:24.965Z,15.76
2022-10-10T08:43:24.974Z,15.76
2022-10-10T08:44:24.909Z,15.74
2022-10-10T08:45:24.905Z,15.69
2022-10-10T08:46:30.034Z,15.69
2022-10-10T08:47:24.933Z,15.69
2022-10-10T08:48:24.879Z,15.67
2022-10-10T08:49:24.847Z,15.67
2022-10-10T08:50:24.829Z,15.72
2022-10-10T08:51:24.825Z,15.75
2022-10-10T08:52:24.838Z,15.86
2022-10-10T08:53:24.808Z,15.82
2022-10-10T08:54:24.833Z,16.02
2022-10-10T08:55:24.773Z,15.90
2022-10-10T08:56:24.812Z,16.00
2022-10-10T08:57:29.826Z,15.96
2022-10-10T08:58:24.734Z,16.11
2022-10-10T08:59:24.719Z,16.28
2022-10-10T09:00:24.747Z,16.48
2022-10-10T09:01:28.018Z,16.68
2022-10-10T09:02:29.625Z,16.67
2022-10-10T09:03:25.675Z,16.82
2022-10-10T09:04:24.700Z,17.08
2022-10-10T09:05:24.653Z,17.46
2022-10-10T09:06:24.651Z,17.81
2022-10-10T09:07:24.645Z,17.72
2022-10-10T09:08:29.645Z,17.74
2022-10-10T09:09:24.607Z,17.84
2022-10-10T09:10:24.596Z,17.96
2022-10-10T09:11:24.622Z,18.07
2022-10-10T09:12:24.604Z,17.81
2022-10-10T09:13:24.575Z,17.86
2022-10-10T09:14:24.562Z,17.92
2022-10-10T09:15:24.540Z,17.68
2022-10-10T09:16:24.532Z,17.77
2022-10-10T09:17:24.607Z,17.59
2022-10-10T09:18:24.537Z,17.58
2022-10-10T09:19:29.555Z,17.49
2022-10-10T09:20:24.485Z,17.37
2022-10-10T09:21:24.490Z,17.36
2022-10-10T09:22:24.469Z,17.22
2022-10-10T09:23:24.468Z,17.11
2022-10-10T09:24:24.461Z,16.91
2022-10-10T09:25:24.437Z,16.81
2022-10-10T09:26:24.419Z,16.86
2022-10-10T09:27:24.429Z,16.81
2022-10-10T09:28:24.480Z,16.79
2022-10-10T09:29:24.389Z,16.79
2022-10-10T09:30:29.395Z,16.67
2022-10-10T09:31:24.372Z,16.79
2022-10-10T09:32:24.362Z,16.75
2022-10-10T09:33:24.356Z,16.81
2022-10-10T09:34:24.485Z,16.73
2022-10-10T09:35:24.351Z,16.78
2022-10-10T09:36:24.319Z,16.70
2022-10-10T09:37:42.599Z,16.85
2022-10-10T09:38:25.298Z,16.86
2022-10-10T09:39:24.270Z,16.93
2022-10-10T09:40:24.281Z,16.88
2022-10-10T09:41:29.272Z,16.93
2022-10-10T09:42:24.380Z,16.97
2022-10-10T09:43:24.237Z,17.19
2022-10-10T09:44:24.228Z,17.26
2022-10-10T09:45:24.218Z,17.23
2022-10-10T09:46:24.193Z,17.26
2022-10-10T09:47:24.192Z,17.31
2022-10-10T09:48:24.180Z,17.37
2022-10-10T09:49:24.170Z,17.12
2022-10-10T09:50:24.227Z,17.12
2022-10-10T09:51:24.137Z,17.14
2022-10-10T09:52:29.152Z,17.14
2022-10-10T09:53:24.133Z,17.08
2022-10-10T09:54:24.103Z,17.22
2022-10-10T09:55:24.109Z,17.33
2022-10-10T09:56:24.086Z,17.44
2022-10-10T09:57:24.069Z,17.41
2022-10-10T09:58:24.074Z,17.51
2022-10-10T09:59:24.070Z,17.56
2022-10-10T10:00:24.038Z,17.52
2022-10-10T10:01:24.108Z,17.55
2022-10-10T10:02:24.018Z,17.58
2022-10-10T10:03:29.044Z,17.41
2022-10-10T10:04:28.368Z,17.41
2022-10-10T10:05:24.979Z,17.48
2022-10-10T10:06:24.021Z,17.51
2022-10-10T10:07:23.965Z,17.58
2022-10-10T10:08:23.963Z,17.59
2022-10-10T10:09:23.943Z,17.55
2022-10-10T10:10:23.934Z,17.58
2022-10-10T10:11:23.910Z,17.59
2022-10-10T10:12:23.900Z,17.66
2022-10-10T10:13:24.156Z,17.63
2022-10-10T10:14:28.909Z,17.71
2022-10-10T10:15:23.886Z,17.75
2022-10-10T10:16:23.856Z,17.71
2022-10-10T10:17:23.842Z,17.89
2022-10-10T10:18:23.901Z,17.87
2022-10-10T10:19:23.828Z,17.99
2022-10-10T10:20:23.809Z,18.08
2022-10-10T10:21:23.798Z,18.08
2022-10-10T10:22:26.613Z,18.05
2022-10-10T10:23:23.789Z,18.17
2022-10-10T10:24:23.793Z,18.14
2022-10-10T10:25:31.321Z,18.00
2022-10-10T10:26:23.747Z,18.08
2022-10-10T10:27:23.739Z,18.07
2022-10-10T10:28:23.784Z,18.10
2022-10-10T10:29:23.704Z,18.12
2022-10-10T10:30:23.731Z,18.14
2022-10-10T10:31:23.690Z,18.21
2022-10-10T10:32:23.676Z,18.35
2022-10-10T10:33:23.668Z,18.35
2022-10-10T10:34:23.729Z,18.32
2022-10-10T10:35:23.635Z,18.37
2022-10-10T10:36:28.658Z,18.44
2022-10-10T10:37:23.627Z,18.45
2022-10-10T10:38:23.638Z,18.50
2022-10-10T10:39:23.589Z,18.47
2022-10-10T10:40:23.580Z,18.52
2022-10-10T10:41:23.569Z,18.52
2022-10-10T10:42:23.557Z,18.60
2022-10-10T10:43:23.554Z,18.52
2022-10-10T10:44:23.566Z,18.51
2022-10-10T10:45:23.524Z,18.47
2022-10-10T10:46:23.510Z,18.47
2022-10-10T10:47:28.569Z,18.58
2022-10-10T10:48:23.529Z,18.54
2022-10-10T10:49:25.689Z,18.55
2022-10-10T10:50:23.498Z,18.52
2022-10-10T10:51:23.453Z,18.62
2022-10-10T10:52:23.469Z,18.60
2022-10-10T10:53:23.456Z,18.70
2022-10-10T10:54:23.449Z,18.65
2022-10-10T10:55:23.423Z,18.60
2022-10-10T10:56:23.486Z,18.84
2022-10-10T10:57:36.857Z,18.84
2022-10-10T11:00:16.654Z,18.88
2022-10-10T11:01:23.526Z,18.87
2022-10-10T11:01:45.109Z,18.85
2022-10-10T11:02:43.508Z,18.80
2022-10-10T11:05:16.091Z,18.84
2022-10-10T11:05:22.861Z,18.82
2022-10-10T11:05:31.130Z,18.82
2022-10-10T11:06:24.434Z,18.82
2022-10-10T11:07:23.365Z,18.85
2022-10-10T11:08:23.278Z,19.00
2022-10-10T11:09:48.998Z,18.98
2022-10-10T11:10:24.260Z,18.91
2022-10-10T11:11:23.257Z,19.00
2022-10-10T11:12:23.250Z,19.02
2022-10-10T11:13:23.357Z,18.99
2022-10-10T11:14:23.193Z,18.99
2022-10-10T11:15:23.179Z,19.08
2022-10-10T11:16:47.262Z,19.19
2022-10-10T11:17:24.162Z,19.13
2022-10-10T11:18:23.147Z,19.13
2022-10-10T11:19:23.154Z,19.23
2022-10-10T11:20:28.175Z,19.16
2022-10-10T11:21:23.112Z,19.18
2022-10-10T11:22:23.137Z,19.40
2022-10-10T11:23:23.103Z,19.48
2022-10-10T11:24:23.087Z,19.73
2022-10-10T11:25:23.088Z,19.99
2022-10-10T11:26:23.064Z,20.17
2022-10-10T11:27:23.079Z,20.36
2022-10-10T11:28:23.068Z,20.35
2022-10-10T11:29:23.047Z,20.18
2022-10-10T11:30:23.023Z,20.06
2022-10-10T11:31:28.034Z,19.98
2022-10-10T11:32:22.999Z,19.91
2022-10-10T11:33:23.003Z,19.81
2022-10-10T11:34:23.034Z,19.80
2022-10-10T11:35:22.954Z,19.65
2022-10-10T11:36:22.942Z,19.61
2022-10-10T11:37:22.941Z,19.51
2022-10-10T11:38:22.923Z,19.58
2022-10-10T11:39:22.924Z,19.59
2022-10-10T11:40:22.900Z,19.59
2022-10-10T11:41:22.904Z,19.51
2022-10-10T11:42:27.902Z,19.55
2022-10-10T11:43:22.892Z,19.55
2022-10-10T11:44:22.875Z,19.56
2022-10-10T11:45:22.849Z,19.66
2022-10-10T11:46:22.829Z,19.58
2022-10-10T11:47:22.816Z,19.65
2022-10-10T11:48:22.811Z,19.62
2022-10-10T11:49:22.811Z,19.66
2022-10-10T11:50:22.794Z,19.59
2022-10-10T11:51:22.782Z,19.69
2022-10-10T11:52:34.158Z,19.61
2022-10-10T11:53:28.775Z,19.69
2022-10-10T11:54:22.761Z,19.76
2022-10-10T11:55:22.724Z,19.80
2022-10-10T11:56:22.720Z,19.86
2022-10-10T11:57:22.820Z,19.80
2022-10-10T11:58:22.699Z,19.78
2022-10-10T11:59:22.690Z,19.77
2022-10-10T12:00:22.678Z,19.83
2022-10-10T12:01:22.661Z,19.91
2022-10-10T12:02:25.719Z,19.84
2022-10-10T12:03:23.643Z,19.84
2022-10-10T12:04:27.655Z,19.86
2022-10-10T12:05:22.610Z,19.86
2022-10-10T12:06:22.630Z,19.99
2022-10-10T12:07:22.598Z,20.02
2022-10-10T12:08:22.579Z,19.99
2022-10-10T12:09:22.566Z,20.11
2022-10-10T12:10:22.565Z,20.11
2022-10-10T12:11:22.548Z,20.13
2022-10-10T12:12:22.537Z,20.29
2022-10-10T12:13:22.570Z,20.43
2022-10-10T12:14:22.513Z,20.80
2022-10-10T12:15:27.533Z,20.97
2022-10-10T12:16:25.755Z,21.07
2022-10-10T12:17:23.477Z,21.12
2022-10-10T12:18:22.466Z,21.07
2022-10-10T12:19:22.471Z,21.21
2022-10-10T12:20:22.477Z,21.46
2022-10-10T12:21:22.429Z,21.58
2022-10-10T12:22:22.421Z,21.43
2022-10-10T12:23:22.414Z,21.19
2022-10-10T12:24:22.401Z,21.12
2022-10-10T12:25:22.441Z,21.04
2022-10-10T12:26:27.397Z,20.87
2022-10-10T12:27:22.364Z,20.94
2022-10-10T12:28:22.418Z,21.01
2022-10-10T12:29:22.365Z,20.98
2022-10-10T12:30:22.364Z,21.17
2022-10-10T12:31:22.323Z,21.44
2022-10-10T12:32:22.310Z,21.62
2022-10-10T12:33:22.300Z,21.94
2022-10-10T12:34:22.288Z,22.10
2022-10-10T12:35:22.869Z,21.94
2022-10-10T12:36:22.261Z,21.84
2022-10-10T12:37:27.272Z,21.64
2022-10-10T12:38:22.238Z,21.43
2022-10-10T12:39:22.238Z,21.32
2022-10-10T12:40:22.261Z,21.06
2022-10-10T12:41:22.207Z,21.07
2022-10-10T12:42:22.210Z,21.09
2022-10-10T12:43:22.184Z,21.14
2022-10-10T12:44:22.183Z,21.16
2022-10-10T12:45:22.228Z,21.24
2022-10-10T12:46:22.159Z,21.42
2022-10-10T12:47:22.136Z,21.71
2022-10-10T12:48:27.148Z,21.96
2022-10-10T12:49:22.120Z,22.18
2022-10-10T12:50:22.110Z,22.28
2022-10-10T12:51:22.090Z,22.25
2022-10-10T12:52:22.108Z,22.07
2022-10-10T12:53:22.072Z,21.71
2022-10-10T12:54:22.057Z,21.53
2022-10-10T12:55:22.105Z,21.49
2022-10-10T12:56:22.164Z,21.42
2022-10-10T12:57:22.029Z,21.37
2022-10-10T12:58:27.178Z,21.40
2022-10-10T12:59:28.022Z,21.38
2022-10-10T13:00:21.995Z,21.38
2022-10-10T13:01:22.070Z,21.29
2022-10-10T13:02:21.967Z,21.38
2022-10-10T13:03:21.966Z,21.40
2022-10-10T13:04:21.944Z,21.35
2022-10-10T13:05:21.945Z,21.29
2022-10-10T13:06:21.924Z,21.24
2022-10-10T13:07:21.911Z,21.17
2022-10-10T13:08:21.905Z,21.13
2022-10-10T13:09:21.891Z,21.09
2022-10-10T13:10:26.907Z,21.12
2022-10-10T13:11:21.868Z,21.13
2022-10-10T13:12:21.871Z,21.12
2022-10-10T13:13:21.904Z,21.16
2022-10-10T13:14:21.833Z,21.22
2022-10-10T13:15:21.834Z,21.24
2022-10-10T13:16:21.813Z,21.29
2022-10-10T13:17:21.819Z,21.25
2022-10-10T13:18:21.904Z,21.37
2022-10-10T13:19:21.780Z,21.32
2022-10-10T13:20:21.810Z,21.37
2022-10-10T13:21:26.777Z,21.37
2022-10-10T13:22:21.747Z,21.40
2022-10-10T13:23:21.732Z,21.32
2022-10-10T13:24:21.730Z,21.22
2022-10-10T13:25:21.720Z,21.22
2022-10-10T13:26:21.744Z,21.31
2022-10-10T13:27:21.690Z,21.27
2022-10-10T13:28:21.816Z,21.29
2022-10-10T13:29:21.667Z,21.28
2022-10-10T13:30:21.669Z,21.34
2022-10-10T13:31:21.646Z,21.31
2022-10-10T13:32:26.671Z,21.40
2022-10-10T13:33:21.623Z,21.42
2022-10-10T13:34:24.791Z,21.40
2022-10-10T13:35:22.619Z,21.43
2022-10-10T13:36:21.586Z,21.43
2022-10-10T13:37:21.577Z,21.47
2022-10-10T13:38:21.564Z,21.43
2022-10-10T13:39:21.554Z,21.43
2022-10-10T13:40:21.561Z,21.43
2022-10-10T13:41:21.536Z,21.44
2022-10-10T13:42:21.526Z,21.42
2022-10-10T13:43:26.548Z,21.47
2022-10-10T13:44:21.498Z,21.37
2022-10-10T13:45:23.336Z,21.44
2022-10-10T13:46:21.484Z,21.44
2022-10-10T13:47:21.481Z,21.44
2022-10-10T13:48:21.494Z,21.38
2022-10-10T13:49:21.444Z,21.47
2022-10-10T13:50:21.442Z,21.42
2022-10-10T13:51:21.465Z,21.44
2022-10-10T13:52:21.417Z,21.43
2022-10-10T13:53:21.400Z,21.43
2022-10-10T13:54:26.418Z,21.38
2022-10-10T13:55:21.479Z,21.44
2022-10-10T13:56:21.368Z,21.43
2022-10-10T13:57:21.406Z,21.38
2022-10-10T13:58:21.357Z,21.38
2022-10-10T13:59:21.338Z,21.42
2022-10-10T14:00:21.366Z,21.38
2022-10-10T14:01:21.382Z,21.34
2022-10-10T14:02:21.321Z,21.38
2022-10-10T14:03:21.359Z,21.40
2022-10-10T14:04:21.384Z,21.37
2022-10-10T14:05:26.291Z,21.37
2022-10-10T14:06:21.268Z,21.31
2022-10-10T14:07:21.245Z,21.37
2022-10-10T14:08:21.237Z,21.37
2022-10-10T14:09:21.237Z,21.38
2022-10-10T14:10:21.239Z,21.44
2022-10-10T14:11:21.216Z,21.47
2022-10-10T14:12:21.190Z,21.35
2022-10-10T14:13:21.191Z,21.37
2022-10-10T14:14:21.168Z,21.44
2022-10-10T14:15:21.159Z,21.43
2022-10-10T14:16:26.174Z,21.43
2022-10-10T14:17:21.154Z,21.44
2022-10-10T14:18:21.125Z,21.38
2022-10-10T14:19:21.113Z,21.49
2022-10-10T14:20:21.131Z,21.42
2022-10-10T14:21:21.107Z,21.49
2022-10-10T14:22:21.091Z,21.44
2022-10-10T14:23:21.081Z,21.44
2022-10-10T14:24:21.055Z,21.38
2022-10-10T14:25:21.048Z,21.40
2022-10-10T14:26:21.052Z,21.32
2022-10-10T14:27:26.059Z,21.32
2022-10-10T14:28:21.113Z,21.31
2022-10-10T14:29:21.000Z,21.37
2022-10-10T14:30:20.988Z,21.43
2022-10-10T14:31:20.995Z,21.42
2022-10-10T14:32:20.967Z,21.42
2022-10-10T14:33:20.956Z,21.38
2022-10-10T14:34:20.948Z,21.43
2022-10-10T14:35:20.940Z,21.42
2022-10-10T14:36:20.954Z,21.42
2022-10-10T14:37:20.913Z,21.53
2022-10-10T14:38:25.921Z,21.40
2022-10-10T14:39:20.892Z,21.44
2022-10-10T14:40:20.878Z,21.43
2022-10-10T14:41:20.879Z,21.50
2022-10-10T14:42:20.858Z,21.46
2022-10-10T14:43:20.847Z,21.43
2022-10-10T14:44:20.838Z,21.47
2022-10-10T14:45:20.830Z,21.43
2022-10-10T14:46:20.826Z,21.49
2022-10-10T14:47:20.805Z,21.43
2022-10-10T14:48:20.792Z,21.46
2022-10-10T14:49:25.845Z,21.44
2022-10-10T14:50:20.772Z,21.46
2022-10-10T14:51:33.905Z,21.42
2022-10-10T14:52:21.762Z,21.38
2022-10-10T14:53:20.742Z,21.32
2022-10-10T14:54:20.935Z,21.38
2022-10-10T14:55:20.713Z,21.34
2022-10-10T14:56:20.723Z,21.28
2022-10-10T14:57:20.703Z,21.29
2022-10-10T14:58:20.681Z,21.35
2022-10-10T14:59:47.087Z,21.31
2022-10-10T15:00:26.675Z,21.34
2022-10-10T15:01:20.652Z,21.37
2022-10-10T15:02:20.737Z,21.40
2022-10-10T15:03:20.669Z,21.31
2022-10-10T15:04:20.620Z,21.34
2022-10-10T15:05:20.601Z,21.40
2022-10-10T15:06:20.591Z,21.31
2022-10-10T15:07:20.596Z,21.34
2022-10-10T15:08:20.588Z,21.35
2022-10-10T15:09:40.158Z,21.28
2022-10-10T15:10:33.770Z,21.28
2022-10-10T15:11:26.563Z,21.32
2022-10-10T15:12:20.534Z,21.32
2022-10-10T15:13:20.512Z,21.24
2022-10-10T15:14:20.506Z,21.25
2022-10-10T15:15:20.496Z,21.22
2022-10-10T15:16:20.496Z,21.14
2022-10-10T15:17:20.476Z,21.24
2022-10-10T15:18:49.179Z,21.19
2022-10-10T15:19:21.443Z,21.19
2022-10-10T15:20:20.430Z,21.16
2022-10-10T15:21:20.426Z,21.19
2022-10-10T15:22:25.444Z,21.06
2022-10-10T15:23:20.401Z,21.09
2022-10-10T15:24:20.408Z,21.10
2022-10-10T15:25:20.378Z,21.01
2022-10-10T15:26:20.365Z,20.97
2022-10-10T15:27:20.368Z,20.98
2022-10-10T15:28:20.375Z,20.97
2022-10-10T15:29:20.335Z,20.95
2022-10-10T15:30:20.326Z,20.91
2022-10-10T15:31:20.319Z,20.88
2022-10-10T15:32:20.308Z,20.80
2022-10-10T15:33:25.320Z,20.76
2022-10-10T15:34:20.280Z,20.82
2022-10-10T15:35:20.266Z,20.77
2022-10-10T15:36:20.252Z,20.85
2022-10-10T15:37:20.259Z,20.80
2022-10-10T15:38:20.233Z,20.89
2022-10-10T15:39:20.239Z,20.89
2022-10-10T15:40:20.233Z,20.89
2022-10-10T15:41:20.199Z,20.92
2022-10-10T15:42:22.997Z,20.94
2022-10-10T15:43:20.186Z,20.97
2022-10-10T15:44:25.200Z,20.97
2022-10-10T15:45:37.325Z,20.97
2022-10-10T15:46:21.140Z,21.01
2022-10-10T15:47:20.192Z,20.97
2022-10-10T15:48:20.119Z,20.98
2022-10-10T15:49:20.110Z,20.92
2022-10-10T15:50:23.615Z,20.92
2022-10-10T15:51:21.089Z,20.92
2022-10-10T15:52:20.087Z,20.89
2022-10-10T15:53:20.065Z,20.82
2022-10-10T15:54:20.053Z,20.88
2022-10-10T15:55:25.085Z,20.84
2022-10-10T15:56:20.034Z,20.84
2022-10-10T15:57:20.035Z,20.84
2022-10-10T15:58:20.031Z,20.80
2022-10-10T16:00:19.988Z,20.82
2022-10-10T16:01:20.088Z,20.79
2022-10-10T16:02:19.977Z,20.70
2022-10-10T16:03:19.952Z,20.70
2022-10-10T16:04:19.938Z,20.69
2022-10-10T16:05:19.929Z,20.73
2022-10-10T16:06:24.937Z,20.74
2022-10-10T16:07:28.175Z,20.72
2022-10-10T16:08:20.905Z,20.62
2022-10-10T16:09:28.344Z,20.69
2022-10-10T16:10:20.874Z,20.69
2022-10-10T16:11:19.880Z,20.61
2022-10-10T16:12:19.848Z,20.64
2022-10-10T16:13:19.850Z,20.58
2022-10-10T16:14:19.847Z,20.48
2022-10-10T16:15:19.822Z,20.57
2022-10-10T16:16:19.812Z,20.51
2022-10-10T16:17:24.815Z,20.54
2022-10-10T16:18:19.794Z,20.51
2022-10-10T16:19:19.779Z,20.51
2022-10-10T16:20:19.758Z,20.50
2022-10-10T16:21:19.760Z,20.50
2022-10-10T16:22:19.741Z,20.54
2022-10-10T16:23:19.747Z,20.50
2022-10-10T16:24:19.726Z,20.58
2022-10-10T16:25:22.639Z,20.52
2022-10-10T16:26:19.693Z,20.50
2022-10-10T16:27:22.450Z,20.39
2022-10-10T16:28:24.785Z,20.51
2022-10-10T16:29:19.681Z,20.55
2022-10-10T16:30:19.645Z,20.52
2022-10-10T16:31:19.638Z,20.48
2022-10-10T16:32:19.625Z,20.32
2022-10-10T16:33:19.626Z,20.43
2022-10-10T16:34:19.599Z,20.43
2022-10-10T16:35:19.591Z,20.41
2022-10-10T16:36:19.575Z,20.42
2022-10-10T16:37:19.569Z,20.31
2022-10-10T16:38:19.569Z,20.29
2022-10-10T16:39:24.565Z,20.26
2022-10-10T16:40:19.535Z,20.31
2022-10-10T16:41:35.551Z,20.21
2022-10-10T16:42:20.511Z,20.18
2022-10-10T16:43:19.530Z,20.16
2022-10-10T16:44:19.497Z,20.18
2022-10-10T16:45:19.476Z,20.10
2022-10-10T16:46:19.467Z,20.10
2022-10-10T16:47:19.451Z,20.16
2022-10-10T16:48:19.452Z,20.11
2022-10-10T16:49:19.430Z,20.06
2022-10-10T16:50:24.442Z,20.06
2022-10-10T16:51:19.406Z,19.99
2022-10-10T16:52:19.405Z,20.03
2022-10-10T16:53:19.409Z,19.98
2022-10-10T16:54:19.397Z,20.06